Tiempo atmosférico en la estación meteorológica de Morón De Almazán , Soria (978 m.)



Fecha
DESCASC
Temp. máxima en grados centígrados (hora)
DESCASC
Temp. mínima en grados centígrados (hora)
DESCASC
Temp. media en grados centígrados
DESCASC
Racha de viento máxima en m/sg (hora)
DESCASC
Velocidad máxima media en intervalos de 10 minutos(hora)
DESCASC
Precipitaciones diarias en mm
DESCASC
Precipitaciones de 00:00 a 06:00 en mm
DESCASC
Precipitaciones de 06:00 a 12:00 en mm
DESCASC
Precipitaciones de 12:00 a 18:00 en mm
DESCASC
Precipitaciones de 18:00 a 24:00 en mm
DESCASC
05-04-2020 17.5 (16:10) 5.4 (03:50) 11.5 10.83 (16:40) 6.94 (17:40) 0 0 0 0 0
04-04-2020 18.5 (17:50) -2.3 (05:30) 8.1 9.17 (17:30) 6.39 (18:50) 0 0 0 0 0
03-04-2020 17.8 (19:10) -4.1 (07:30) 6.8 7.5 (14:50) 3.61 (00:10) 0 0 0 0 0
02-04-2020 10.2 (18:00) 3.8 (00:00) 7 10.56 (22:40) 7.5 (23:00) 0 0 0 0 0
01-04-2020 9.2 (15:50) 3.5 (00:00) 6.3 9.17 (01:00) 6.11 (01:00) 13.4 9 2.4 0 2
31-03-2020 3.6 (21:50) -2.1 (-00:0) 0.8 11.11 (16:00) 8.06 (15:10) 6.6 0 0.4 5.8 0.4
30-03-2020 5.3 (17:40) -1.1 (-00:0) 2.1 13.33 (04:10) 9.72 (05:10) 0 0 0 0 0
29-03-2020 17.5 (15:10) -2.9 (-00:0) 7.3 12.22 (23:50) 8.06 (23:40) 0 0 0 0 0
28-03-2020 15.5 (16:50) -5.1 (-00:0) 5.2 7.78 (15:20) 3.61 (14:20) 0 0 0 0 0
27-03-2020 11.5 (16:20) -2 (-00:0) 4.8 8.61 (15:10) 5 (16:40) 0 0 0 0 0
26-03-2020 9.5 (15:20) -3.8 (-00:0) 2.9 14.44 (13:40) 11.11 (13:30) 0 0 0 0 0
25-03-2020 15.3 (15:40) 0.5 (00:00) 7.9 10 (16:00) 7.22 (16:00) 0 0 0 0 0
24-03-2020 12.5 (13:50) 0.2 (00:00) 6.4 12.22 (14:00) 8.33 (10:30) 0 0 0 0 0
23-03-2020 12.1 (15:50) 4.5 (00:00) 8.3 9.72 (11:10) 6.67 (10:30) 0.4 0 0 0.4 0
22-03-2020 13.3 (15:20) 4 (22:50) 8.7 11.11 (14:30) 7.22 (14:50) 0 0 0 0 0
21-03-2020 10.5 (12:20) 5.1 (00:00) 7.8 5.83 (00:20) 3.89 (00:20) 0 0 0 0 0
20-03-2020 13.2 (16:50) 5.3 (00:00) 9.3 5.83 (16:00) 4.17 (19:50) 0 0 0 0 0
19-03-2020 16.3 (15:40) 4.4 (00:00) 10.3 6.94 (15:10) 4.72 (18:30) 0 0 0 0 0
18-03-2020 16 (15:30) 3.9 (00:00) 10 6.94 (15:50) 5 (12:30) 0 0 0 0 0
17-03-2020 11.4 (15:10) 4.5 (00:00) 7.9 11.67 (15:30) 7.5 (00:10) 6.8 3 3.6 0.2 0
16-03-2020 7.6 (01:00) 0.1 (00:00) 3.8 11.67 (23:40) 8.06 (23:30) 39.2 12.6 10.4 13 3.2
15-03-2020 18.5 (15:50) -1.2 (-00:0) 8.6 12.78 (18:10) 8.61 (19:40) 9.6 0 0 0 9.6
14-03-2020 21 (16:40) -0.4 (00:00) 10.3 4.17 (15:40) 2.5 (10:20) 0 0 0 0 0
13-03-2020 18.3 (15:10) 3.4 (23:59) 10.8 7.78 (17:30) 5.56 (17:30) 0 0 0 0 0
12-03-2020 24 (15:40) 2.5 (00:00) 13.3 10.83 (13:30) 7.5 (13:30) 0 0 0 0 0
11-03-2020 23.5 (16:50) -0.5 (-00:0) 11.5 9.44 (15:30) 6.39 (15:30) 0 0 0 0 0
10-03-2020 19.1 (16:00) 1.6 (00:00) 10.4 10.28 (15:20) 7.5 (15:40) 0 0 0 0 0

Gráficas

Temp. máximas Temp. mínimas Temp. medias Precipitaciones Rachas de viento máximas Velocidades máximas media en intervalos de 10 minutos

Datos horarios

Fecha y hora oficial Temperatura (ºC) Velocidad del viento (km/h) Dirección del viento Racha (km/h) Dirección de racha Precipitación (mm) Presión (hPa) Tendencia (hPa) Humedad (%)
2020-04-08 23:00:00 10.5 12 Este 19 Sudeste 0 -- -- 96
2020-04-08 22:00:00 11 10 Sudeste 20 Este 0 -- -- 93
2020-04-08 21:00:00 12.4 15 Este 26 Nordeste 0 -- -- 82
2020-04-08 20:00:00 14.6 20 Nordeste 32 Nordeste 0 -- -- 76
2020-04-08 19:00:00 14 19 Nordeste 32 Norte 0 -- -- 74
2020-04-08 18:00:00 20.6 7 Este 17 Sudeste 0 -- -- 47
2020-04-08 17:00:00 19 10 Sudeste 19 Sur 0 -- -- 57
2020-04-08 16:00:00 18 7 Sudeste 19 Sudeste 0 -- -- 59
2020-04-08 15:00:00 18.4 10 Este 17 Este 0 -- -- 61
2020-04-08 14:00:00 17.9 7 Sudeste 13 Este 0 -- -- 61
2020-04-08 13:00:00 16.8 8 Sudeste 19 Este 0 -- -- 65
2020-04-08 12:00:00 15 11 Este 17 Este 0 -- -- 78
2020-04-08 11:00:00 13.6 10 Este 15 Sudeste 0 -- -- 83
2020-04-08 10:00:00 11 8 Este 13 Este 0 -- -- 96
2020-04-08 09:00:00 10.4 7 Este 11 Este 0 -- -- 98
2020-04-08 08:00:00 10 6 Sudeste 11 Sudeste 0 -- -- 99
2020-04-08 07:00:00 9.7 6 Este 13 Este 0 -- -- 99
2020-04-08 06:00:00 9.9 3 Sudeste 8 Este 0 -- -- 98
2020-04-08 05:00:00 10 5 Este 10 Este 0 -- -- 98
2020-04-08 04:00:00 10 4 Sudeste 13 Sudeste 0 -- -- 98
2020-04-08 03:00:00 10.1 5 Este 11 Este 0 -- -- 97
2020-04-08 02:00:00 10.3 7 Este 17 Sudeste 0 -- -- 97
2020-04-08 01:00:00 10.3 8 Sudeste 19 Este 0 -- -- 95
2020-04-08 00:00:00 10.4 12 Sudeste 21 Este 0 -- -- 95
2020-04-07 23:00:00 10.3 12 Este 25 Sudeste 0 -- -- 95
2020-04-07 22:00:00 10.6 15 Este 27 Este 0 -- -- 94
2020-04-07 21:00:00 10.8 8 Este 28 Este 7.6 -- -- 95
2020-04-07 20:00:00 12.3 21 Este 30 Este 0.2 -- -- 88
2020-04-07 19:00:00 14.5 14 Este 23 Este 0 -- -- 78
2020-04-07 18:00:00 18 5 Noroeste 26 Oeste 0 -- -- 55
2020-04-07 17:00:00 18.3 19 Sudoeste 33 Sudoeste 0 -- -- 53
2020-04-07 16:00:00 17.9 18 Sudoeste 31 Sudoeste 0 -- -- 54
2020-04-07 15:00:00 16.8 16 Sudoeste 31 Sudoeste 0 -- -- 63
2020-04-07 14:00:00 16.6 16 Sudoeste 24 Sudoeste 0 -- -- 62
2020-04-07 13:00:00 15 15 Sudoeste 27 Sudoeste 0 -- -- 68
2020-04-07 12:00:00 13.4 11 Sur 25 Sur 0 -- -- 76
2020-04-07 11:00:00 12 14 Sur 22 Sur 0 -- -- 81
2020-04-07 10:00:00 11 5 Sur 10 Sur 0 -- -- 90
2020-04-07 09:00:00 9.4 6 Este 11 Sudeste 0 -- -- 96
2020-04-07 08:00:00 9.3 4 Sudeste 17 Este 0.2 -- -- 96
2020-04-07 07:00:00 9.4 6 Sudeste 13 Sur 1 -- -- 98
2020-04-07 06:00:00 9.6 6 Sudeste 17 Este 0.4 -- -- 97
2020-04-07 05:00:00 9.8 7 Este 17 Este 0.4 -- -- 97
2020-04-07 04:00:00 9.8 7 Este 18 Este 0 -- -- 97
2020-04-07 03:00:00 9.8 10 Este 14 Este 0.2 -- -- 95
2020-04-07 02:00:00 9.9 6 Sudeste 11 Este 0 -- -- 95
2020-04-07 01:00:00 10.1 4 Sudeste 11 Sudeste 0 -- -- 93
2020-04-07 00:00:00 9.2 3 Este 5 Este 0 -- -- 96
2020-04-06 23:00:00 9.8 2 Sudeste 5 Sur 0 -- -- 95
2020-04-06 22:00:00 10.2 3 Este 12 Oeste 0.6 -- -- 92
2020-04-06 21:00:00 10.9 4 Oeste 25 Oeste 0 -- -- 84
2020-04-06 20:00:00 13.7 13 Sudoeste 27 Sur 0 -- -- 73
2020-04-06 19:00:00 14.5 15 Sur 24 Sudoeste 0 -- -- 66
2020-04-06 18:00:00 14.6 13 Sur 25 Sur 0 -- -- 68
2020-04-06 17:00:00 15.6 15 Sudoeste 28 Sur 0 -- -- 66
2020-04-06 16:00:00 15.1 19 Sudoeste 31 Sur 0 -- -- 70
2020-04-06 15:00:00 14.3 10 Sur 34 Sudoeste 0 -- -- 76
2020-04-06 14:00:00 13.2 19 Sur 33 Sudoeste 0 -- -- 79
2020-04-06 13:00:00 13.4 19 Sur 33 Sur 0 -- -- 78
2020-04-06 12:00:00 12.8 17 Sur 33 Sur 0 -- -- 81
2020-04-06 11:00:00 13.4 22 Sur 35 Sur 0 -- -- 78
2020-04-06 10:00:00 11.4 7 Sur 22 Sudeste 0 -- -- 85
2020-04-06 09:00:00 9.9 5 Sur 19 Sur 0 -- -- 90
2020-04-06 08:00:00 9.9 8 Sudeste 14 Sur 0 -- -- 88
2020-04-06 07:00:00 9.6 7 Sudeste 17 Sudeste 0 -- -- 89
2020-04-06 06:00:00 9.8 7 Sudeste 15 Sudeste 0.2 -- -- 88
2020-04-06 05:00:00 9.9 7 Sur 14 Sur 0 -- -- 87
2020-04-06 04:00:00 10.2 6 Sur 13 Sudeste 0 -- -- 82
2020-04-06 03:00:00 9.5 5 Este 10 Nordeste 0 -- -- 83
2020-04-06 02:00:00 9.9 4 Nordeste 21 Sur 0 -- -- 78
2020-04-06 01:00:00 11.6 10 Sur 19 Sudeste 0 -- -- 69
2020-04-06 00:00:00 11.4 12 Sur 18 Sur 0 -- -- 70
2020-04-05 23:00:00 9.4 2 Este 23 Sur 0 -- -- 80
2020-04-05 22:00:00 12.1 18 Sur 25 Sur 0 -- -- 67
2020-04-05 21:00:00 11.1 7 Sur 21 Sur 0 -- -- 70
2020-04-05 20:00:00 14.6 13 Sudoeste 36 Sudoeste 0 -- -- 59
2020-04-05 19:00:00 16.8 22 Sudoeste 38 Sur 0 -- -- 50
2020-04-05 18:00:00 17.3 21 Sur 37 Sur 0 -- -- 48
2020-04-05 17:00:00 17 24 Sur 39 Sur 0 -- -- 52
2020-04-05 16:00:00 17.3 21 Sudoeste 35 Sudoeste 0 -- -- 48
2020-04-05 15:00:00 16.2 21 Sur 38 Sur 0 -- -- 51
2020-04-05 14:00:00 15.7 20 Sudoeste 37 Sur 0 -- -- 54
2020-04-05 13:00:00 14.8 18 Sudoeste 32 Sudoeste 0 -- -- 60
2020-04-05 12:00:00 13.7 16 Sudoeste 31 Sur 0 -- -- 61
2020-04-05 11:00:00 10.9 7 Sudeste 16 Sudeste 0 -- -- 70
2020-04-05 10:00:00 9.6 8 Sudeste 17 Sudeste 0 -- -- 76
2020-04-05 09:00:00 7.3 8 Este 13 Este 0 -- -- 82
2020-04-05 08:00:00 6.8 6 Sudeste 18 Sudeste 0 -- -- 83
2020-04-05 07:00:00 6.8 4 Sudeste 18 Sudeste 0 -- -- 84
2020-04-05 06:00:00 7.2 8 Sudeste 17 Sudeste 0 -- -- 82
2020-04-05 05:00:00 7.1 7 Sudeste 16 Sudeste 0 -- -- 82
2020-04-05 04:00:00 5.7 0 Calma 5 Este 0 -- -- 88
2020-04-05 03:00:00 5.9 3 Este 7 Sudeste 0 -- -- 85
2020-04-05 02:00:00 7.7 4 Sudeste 13 Sur 0 -- -- 75
2020-04-05 01:00:00 8.5 9 Sudeste 17 Sudeste 0 -- -- 70
2020-04-05 00:00:00 9.1 8 Sudeste 18 Sur 0 -- -- 68
2020-04-04 23:00:00 9.9 6 Sudeste 13 Sudeste 0 -- -- 65
2020-04-04 22:00:00 10.7 5 Sudeste 11 Sudeste 0 -- -- 61
2020-04-04 21:00:00 11.1 5 Sur 20 Sur 0 -- -- 60
2020-04-04 20:00:00 13.4 9 Este 32 Este 0 -- -- 61
2020-04-04 19:00:00 15.1 23 Este 33 Este 0 -- -- 50
2020-04-04 18:00:00 17.9 18 Este 33 Este 0 -- -- 41
2020-04-04 17:00:00 17.6 15 Este 32 Este 0 -- -- 41
2020-04-04 16:00:00 16.6 14 Este 26 Este 0 -- -- 41
2020-04-04 15:00:00 15.6 12 Este 32 Este 0 -- -- 43
2020-04-04 14:00:00 15 13 Este 24 Sudeste 0 -- -- 43
2020-04-04 13:00:00 13.6 13 Este 20 Este 0 -- -- 50
2020-04-04 12:00:00 11.9 11 Este 21 Este 0 -- -- 55
2020-04-04 11:00:00 9.8 10 Este 15 Este 0 -- -- 62
2020-04-04 10:00:00 6.4 4 Este 12 Este 0 -- -- 78
2020-04-04 09:00:00 1.6 2 Nordeste 10 Este 0 -- -- 92
2020-04-04 08:00:00 -1.4 7 Este 11 Este 0 -- -- 96
2020-04-04 07:00:00 -1.1 4 Este 10 Este 0 -- -- 98
2020-04-04 06:00:00 -1.9 5 Este 6 Este 0 -- -- 98
2020-04-04 05:00:00 -1.8 3 Sudeste 6 Este 0 -- -- 99
2020-04-04 04:00:00 -2.2 0 Calma 6 Este 0 -- -- 97
2020-04-04 03:00:00 -1.2 4 Este 8 Nordeste 0 -- -- 97
2020-04-04 02:00:00 -0.7 0 Calma 4 Nordeste 0 -- -- 96
2020-04-04 01:00:00 1.4 0 Calma 5 Este 0 -- -- 93
2020-04-04 00:00:00 2.2 3 Este 6 Nordeste 0 -- -- 88
2020-04-03 23:00:00 3.1 4 Este 12 Este 0 -- -- 86
2020-04-03 22:00:00 3.8 4 Este 9 Este 0 -- -- 82
2020-04-03 21:00:00 7.4 2 Sudeste 8 Sudeste 0 -- -- 65
2020-04-03 20:00:00 14.5 3 Sur 7 Nordeste 0 -- -- 33
2020-04-03 19:00:00 17.4 0 Calma 12 Oeste 0 -- -- 27
2020-04-03 18:00:00 15.4 4 Sur 15 Sudeste 0 -- -- 28
2020-04-03 17:00:00 15.9 3 Este 18 Sudoeste 0 -- -- 31
2020-04-03 16:00:00 13.3 5 Oeste 13 Oeste 0 -- -- 37
2020-04-03 15:00:00 11.8 7 Oeste 27 Sur 0 -- -- 43
2020-04-03 14:00:00 10.8 4 Noroeste 13 Sudoeste 0 -- -- 43
2020-04-03 13:00:00 9.5 3 Sur 13 Oeste 0 -- -- 53
2020-04-03 12:00:00 7.5 8 Oeste 15 Oeste 0 -- -- 63
2020-04-03 11:00:00 4.1 5 Sudoeste 12 Oeste 0 -- -- 79
2020-04-03 10:00:00 1.1 5 Oeste 8 Oeste 0 -- -- 95
2020-04-03 09:00:00 -1.7 0 Calma 2 Noroeste 0 -- -- 98
2020-04-03 08:00:00 -3.8 0 Calma 5 Noroeste 0 -- -- 99
2020-04-03 07:00:00 -3.1 3 Sur 4 Sudeste 0 -- -- 99
2020-04-03 06:00:00 -3.6 0 Calma 4 Oeste 0 -- -- 98
2020-04-03 05:00:00 -2.7 0 Calma 5 Noroeste 0 -- -- 98
2020-04-03 04:00:00 -2.7 0 Calma 5 Este 0 -- -- 97
2020-04-03 03:00:00 -1.4 3 Sudeste 5 Este 0 -- -- 94
2020-04-03 02:00:00 0.6 3 Oeste 18 Noroeste 0 -- -- 86
2020-04-03 01:00:00 2.5 12 Oeste 20 Norte 0 -- -- 81
2020-04-03 00:00:00 3.8 18 Norte 36 Norte 0 -- -- 77
2020-04-02 23:00:00 5 27 Norte 38 Norte 0 -- -- 76
2020-04-02 22:00:00 6 23 Norte 34 Nordeste 0 -- -- 75
2020-04-02 21:00:00 6.3 19 Norte 32 Norte 0 -- -- 75
2020-04-02 20:00:00 7.4 20 Norte 36 Norte 0 -- -- 75
2020-04-02 19:00:00 8.6 22 Norte 35 Norte 0 -- -- 72
2020-04-02 18:00:00 10.2 26 Norte 35 Norte 0 -- -- 63
2020-04-02 17:00:00 8.8 21 Norte 35 Norte 0 -- -- 70
2020-04-02 16:00:00 9.3 20 Norte 32 Norte 0 -- -- 70
2020-04-02 15:00:00 8.7 24 Norte 33 Norte 0 -- -- 71
2020-04-02 14:00:00 9.1 24 Norte 35 Norte 0 -- -- 71
2020-04-02 13:00:00 9.1 20 Nordeste 33 Norte 0 -- -- 70
2020-04-02 12:00:00 7.4 8 Norte 19 Norte 0 -- -- 81
2020-04-02 11:00:00 5.9 13 Norte 17 Norte 0 -- -- 89
2020-04-02 10:00:00 5.9 10 Norte 15 Norte 0 -- -- 89
2020-04-02 09:00:00 5.4 3 Norte 6 Norte 0 -- -- 92
2020-04-02 08:00:00 4.7 3 Norte 7 Este 0 -- -- 93
2020-04-02 07:00:00 5 5 Este 12 Nordeste 0 -- -- 91
2020-04-02 06:00:00 4.8 3 Nordeste 5 Sudeste 0 -- -- 98
2020-04-02 05:00:00 4.5 0 Calma 5 Sur 0 -- -- 98
2020-04-02 04:00:00 4.5 3 Nordeste 5 Nordeste 0 -- -- 97
2020-04-02 03:00:00 4.9 2 Este 8 Este 0 -- -- 97
2020-04-02 02:00:00 5 5 Sudeste 11 Este 0 -- -- 97
2020-04-02 01:00:00 5.2 0 Calma 6 Sudeste 0 -- -- 96
2020-04-02 00:00:00 5.3 4 Este 12 Nordeste 0 -- -- 96
2020-04-01 23:00:00 4.8 3 Nordeste 14 Este 0 -- -- 96
2020-04-01 22:00:00 5.6 8 Este 19 Este 0 -- -- 94
2020-04-01 21:00:00 6 12 Este 22 Este 0 -- -- 93
2020-04-01 20:00:00 6.7 14 Este 23 Este 1.6 -- -- 93
2020-04-01 19:00:00 7.5 9 Este 18 Este 0.4 -- -- 86
2020-04-01 18:00:00 8.1 14 Este 23 Este 0 -- -- 80
2020-04-01 17:00:00 8 14 Este 22 Este 0 -- -- 83
2020-04-01 16:00:00 9 13 Este 19 Este 0 -- -- 77
2020-04-01 15:00:00 8.8 10 Este 23 Este 0 -- -- 78
2020-04-01 14:00:00 8.8 15 Este 23 Este 0 -- -- 80
2020-04-01 13:00:00 7 16 Este 27 Este 0 -- -- 89
2020-04-01 12:00:00 6 17 Este 28 Este 0 -- -- 92
2020-04-01 11:00:00 5.5 15 Este 27 Este 0.2 -- -- 97
2020-04-01 10:00:00 5.1 14 Este 22 Este 0.2 -- -- 98
2020-04-01 09:00:00 4.4 12 Este 19 Este 0.2 -- -- 99
2020-04-01 08:00:00 4 12 Este 23 Este 0.4 -- -- 99
2020-04-01 07:00:00 3.7 12 Este 17 Este 1.4 -- -- 99
2020-04-01 06:00:00 3.6 7 Este 9 Este 3.2 -- -- 99
2020-04-01 05:00:00 3.6 4 Sudeste 13 Sudeste 2.8 -- -- 99
2020-04-01 04:00:00 3.8 9 Este 21 Este 3 -- -- 99
2020-04-01 03:00:00 3.9 15 Este 29 Este 0 -- -- 99
2020-04-01 02:00:00 3.8 19 Este 33 Este 0 -- -- 98
2020-04-01 01:00:00 3.6 22 Este 33 Este 0 -- -- 98
2020-04-01 00:00:00 3.6 24 Este 36 Este 0 -- -- 98
2020-03-31 23:00:00 3.6 19 Este 28 Este 0.4 -- -- 96
2020-03-31 22:00:00 3.6 18 Este 30 Este 0 -- -- 96
2020-03-31 21:00:00 3.4 19 Este 35 Este 0 -- -- 95
2020-03-31 20:00:00 3.2 22 Este 33 Este 0 -- -- 95
2020-03-31 19:00:00 3.1 17 Este 37 Este 0 -- -- 94
2020-03-31 18:00:00 3.2 28 Este 39 Este 0 -- -- 91
2020-03-31 17:00:00 2.5 25 Este 40 Este 0 -- -- 90
2020-03-31 16:00:00 2 29 Este 40 Este 0.8 -- -- 90
2020-03-31 15:00:00 1.7 23 Este 35 Este 1.4 -- -- 89
2020-03-31 14:00:00 1.2 17 Este 30 Este 2 -- -- 90
2020-03-31 13:00:00 0.5 21 Este 34 Este 1.6 -- -- 92
2020-03-31 12:00:00 0.3 20 Este 28 Este 0.4 -- -- 89
2020-03-31 11:00:00 -0.2 17 Este 27 Este 0 -- -- 90
2020-03-31 10:00:00 -0.7 17 Este 26 Este 0 -- -- 91
2020-03-31 09:00:00 -1.7 19 Este 27 Este 0 -- -- 93
2020-03-31 08:00:00 -2 16 Este 24 Este 0 -- -- 94
2020-03-31 07:00:00 -2 14 Este 24 Este 0 -- -- 94
2020-03-31 06:00:00 -2 19 Este 24 Este 0 -- -- 94
2020-03-31 05:00:00 -2 13 Este 18 Este 0 -- -- 95
2020-03-31 04:00:00 -1.9 9 Este 15 Este 0 -- -- 96
2020-03-31 03:00:00 -1.6 9 Este 17 Este 0 -- -- 95
2020-03-31 02:00:00 -1.3 9 Este 18 Nordeste 0 -- -- 94
2020-03-31 01:00:00 -1.2 11 Este 20 Nordeste 0 -- -- 93
2020-03-31 00:00:00 -1 10 Nordeste 19 Nordeste 0 -- -- 89
2020-03-30 23:00:00 -0.7 13 Este 20 Nordeste 0 -- -- 94
2020-03-30 22:00:00 -0.5 9 Este 21 Este 0 -- -- 94
2020-03-30 21:00:00 -0.3 14 Sudeste 24 Este 0 -- -- 93
2020-03-30 20:00:00 0.5 18 Este 33 Este 0 -- -- 83
2020-03-30 19:00:00 2.8 14 Nordeste 28 Nordeste 0 -- -- 55
2020-03-30 18:00:00 4.4 21 Nordeste 31 Nordeste 0 -- -- 47
2020-03-30 17:00:00 4.1 16 Nordeste 30 Nordeste 0 -- -- 49
2020-03-30 16:00:00 3.4 15 Norte 28 Norte 0 -- -- 54
2020-03-30 15:00:00 3 18 Norte 31 Norte 0 -- -- 54
2020-03-30 14:00:00 2 19 Norte 30 Norte 0 -- -- 63
2020-03-30 13:00:00 1.9 20 Norte 32 Norte 0 -- -- 61
2020-03-30 12:00:00 1.2 23 Norte 32 Norte 0 -- -- 62
2020-03-30 11:00:00 0.6 19 Norte 26 Norte 0 -- -- 65
2020-03-30 10:00:00 -0.6 15 Norte 29 Norte 0 -- -- 76
2020-03-30 09:00:00 -0.2 23 Norte 36 Norte 0 -- -- 73
2020-03-30 08:00:00 0.2 27 Norte 45 Norte 0 -- -- 79
2020-03-30 07:00:00 0.9 27 Norte 46 Norte 0 -- -- 80
2020-03-30 06:00:00 1.2 31 Norte 45 Norte 0 -- -- 80
2020-03-30 05:00:00 1.8 33 Norte 48 Norte 0 -- -- 77
2020-03-30 04:00:00 2.3 29 Norte 41 Norte 0 -- -- 80
2020-03-30 03:00:00 2.9 25 Norte 36 Norte 0 -- -- 79
2020-03-30 02:00:00 3 14 Norte 36 Norte 0 -- -- 83
2020-03-30 01:00:00 3.6 21 Norte 35 Norte 0 -- -- 78
2020-03-30 00:00:00 4.4 26 Norte 44 Norte 0 -- -- 78
2020-03-29 23:00:00 5.5 21 Norte 34 Norte 0 -- -- 72
2020-03-29 22:00:00 6.4 24 Norte 42 Norte 0 -- -- 70
2020-03-29 21:00:00 7.5 23 Norte 41 Norte 0 -- -- 67
2020-03-29 20:00:00 9.4 27 Nordeste 39 Nordeste 0 -- -- 55
2020-03-29 19:00:00 11.7 20 Norte 34 Norte 0 -- -- 42
2020-03-29 18:00:00 13.1 19 Nordeste 31 Nordeste 0 -- -- 36
2020-03-29 17:00:00 14.5 8 Nordeste 18 Nordeste 0 -- -- 37
2020-03-29 16:00:00 15.2 4 Oeste 14 Noroeste 0 -- -- 41
2020-03-29 15:00:00 15.9 5 Noroeste 19 Noroeste 0 -- -- 42
2020-03-29 14:00:00 14.4 8 Oeste 19 Oeste 0 -- -- 44
2020-03-29 13:00:00 12.9 9 Noroeste 22 Oeste 0 -- -- 48
2020-03-29 12:00:00 10.4 13 Oeste 19 Oeste 0 -- -- 58
2020-03-29 11:00:00 7.8 8 Oeste 11 Oeste 0 -- -- 71
2020-03-29 10:00:00 3.5 0 Calma 3 Noroeste 0 -- -- 85
2020-03-29 09:00:00 -0.7 0 Calma 3 Este 0 -- -- 95
2020-03-29 08:00:00 -2.9 0 Calma 3 Nordeste 0 -- -- 96
2020-03-29 07:00:00 -2.4 0 Calma 5 Este 0 -- -- 96
2020-03-29 06:00:00 -2.2 3 Este 5 Este 0 -- -- 95
2020-03-29 05:00:00 -1.6 4 Este 5 Este 0 -- -- 94
2020-03-29 03:00:00 -0.9 0 Calma 4 Este 0 -- -- 94
2020-03-29 01:00:00 0.1 0 Calma 7 Este 0 -- -- 90
2020-03-29 00:00:00 1.1 2 Sudeste 5 Noroeste 0 -- -- 87
2020-03-28 23:00:00 2.1 5 Nordeste 9 Nordeste 0 -- -- 84
2020-03-28 22:00:00 2.9 5 Nordeste 6 Nordeste 0 -- -- 79
2020-03-28 21:00:00 4 5 Nordeste 9 Sudeste 0 -- -- 76
2020-03-28 20:00:00 7.5 5 Sudeste 10 Sudeste 0 -- -- 60
2020-03-28 19:00:00 12.7 5 Sudeste 16 Este 0 -- -- 46
2020-03-28 18:00:00 14.7 8 Este 16 Este 0 -- -- 39
2020-03-28 17:00:00 15.5 8 Este 19 Este 0 -- -- 37
2020-03-28 16:00:00 14.9 8 Sudoeste 28 Este 0 -- -- 41
2020-03-28 15:00:00 13.9 9 Sudeste 24 Este 0 -- -- 40
2020-03-28 14:00:00 13.5 12 Este 21 Este 0 -- -- 39
2020-03-28 13:00:00 13.2 7 Nordeste 20 Este 0 -- -- 40
2020-03-28 12:00:00 11.3 6 Sudeste 14 Este 0 -- -- 46
2020-03-28 11:00:00 10.4 3 Sur 11 Sudeste 0 -- -- 53
2020-03-28 10:00:00 6.7 0 Calma 6 Oeste 0 -- -- 65
2020-03-28 09:00:00 1.6 2 Oeste 6 Oeste 0 -- -- 81
2020-03-28 08:00:00 -2.4 0 Calma 4 Nordeste 0 -- -- 93
2020-03-28 07:00:00 -4.8 0 Calma 2 Este 0 -- -- 95
2020-03-28 06:00:00 -4.7 0 Calma 2 Este 0 -- -- 95
2020-03-28 05:00:00 -4.7 0 Calma 5 Noroeste 0 -- -- 94
2020-03-28 04:00:00 -3.7 0 Calma 6 Nordeste 0 -- -- 91
2020-03-28 03:00:00 -2.9 3 Sudeste 5 Sudeste 0 -- -- 90
2020-03-28 02:00:00 -2.9 2 Sur 5 Sudeste 0 -- -- 89
2020-03-28 01:00:00 -2.8 0 Calma 8 Este 0 -- -- 88
2020-03-28 00:00:00 -2 3 Este 6 Nordeste 0 -- -- 85
2020-03-27 23:00:00 -0.3 4 Nordeste 9 Nordeste 0 -- -- 75
2020-03-27 22:00:00 0.1 5 Este 9 Nordeste 0 -- -- 74
2020-03-27 21:00:00 2.3 3 Este 9 Este 0 -- -- 62
2020-03-27 20:00:00 4.4 8 Este 16 Este 0 -- -- 52
2020-03-27 19:00:00 9.7 10 Este 21 Este 0 -- -- 35
2020-03-27 18:00:00 11 16 Este 26 Este 0 -- -- 28
2020-03-27 17:00:00 11.1 15 Este 30 Este 0 -- -- 31
2020-03-27 16:00:00 10.6 16 Este 31 Este 0 -- -- 37
2020-03-27 15:00:00 10 14 Este 26 Nordeste 0 -- -- 39
2020-03-27 14:00:00 9.6 13 Este 26 Este 0 -- -- 47
2020-03-27 13:00:00 8.6 11 Este 29 Este 0 -- -- 48
2020-03-27 12:00:00 7.4 13 Este 29 Este 0 -- -- 50
2020-03-27 11:00:00 6.6 13 Este 24 Este 0 -- -- 51
2020-03-27 10:00:00 4.4 9 Nordeste 24 Este 0 -- -- 59
2020-03-27 09:00:00 1.5 9 Nordeste 14 Este 0 -- -- 70
2020-03-27 08:00:00 -1.1 4 Este 9 Nordeste 0 -- -- 84
2020-03-27 07:00:00 -0.4 5 Nordeste 8 Este 0 -- -- 82
2020-03-27 06:00:00 -0.5 8 Nordeste 12 Nordeste 0 -- -- 81
2020-03-27 05:00:00 -1.7 4 Nordeste 18 Nordeste 0 -- -- 83
2020-03-27 04:00:00 -0.3 12 Nordeste 21 Nordeste 0 -- -- 75
2020-03-27 03:00:00 -0.3 0 Calma 9 Norte 0 -- -- 77
2020-03-27 02:00:00 0 6 Norte 22 Nordeste 0 -- -- 74
2020-03-27 01:00:00 1 13 Nordeste 27 Nordeste 0 -- -- 70
2020-03-27 00:00:00 1.5 13 Nordeste 24 Nordeste 0 -- -- 65
2020-03-26 23:00:00 1.4 9 Nordeste 15 Nordeste 0 -- -- 68
2020-03-26 22:00:00 0.3 4 Sudeste 17 Norte 0 -- -- 72
2020-03-26 21:00:00 2.4 10 Norte 32 Norte 0 -- -- 62
2020-03-26 20:00:00 3.7 19 Norte 30 Norte 0 -- -- 56
2020-03-26 19:00:00 5.9 23 Norte 33 Norte 0 -- -- 49
2020-03-26 18:00:00 8.4 21 Norte 31 Norte 0 -- -- 41
2020-03-26 17:00:00 9.2 19 Norte 39 Norte 0 -- -- 41
2020-03-26 16:00:00 7.9 22 Norte 37 Norte 0 -- -- 44
2020-03-26 15:00:00 8.9 24 Noroeste 45 Noroeste 0 -- -- 48
2020-03-26 14:00:00 8.7 36 Norte 52 Norte 0 -- -- 47
2020-03-26 13:00:00 8.1 31 Norte 48 Norte 0 -- -- 49
2020-03-26 12:00:00 7 20 Noroeste 33 Norte 0 -- -- 57
2020-03-26 11:00:00 6.3 18 Noroeste 24 Oeste 0 -- -- 66
2020-03-26 10:00:00 2.4 13 Oeste 18 Oeste 0 -- -- 74
2020-03-26 09:00:00 -0.1 9 Noroeste 17 Noroeste 0 -- -- 79
2020-03-26 08:00:00 -1.9 9 Noroeste 15 Noroeste 0 -- -- 86
2020-03-26 07:00:00 -3.5 7 Oeste 13 Noroeste 0 -- -- 94
2020-03-26 06:00:00 -2.6 11 Noroeste 24 Oeste 0 -- -- 93
2020-03-26 05:00:00 -2 12 Noroeste 16 Oeste 0 -- -- 87
2020-03-26 04:00:00 -1.5 8 Oeste 15 Oeste 0 -- -- 82
2020-03-26 03:00:00 -2.3 0 Calma 5 Noroeste 0 -- -- 97
2020-03-26 02:00:00 -1.1 0 Calma 4 Sudoeste 0 -- -- 94
2020-03-26 01:00:00 0.6 0 Calma 8 Sudeste 0 -- -- 89
2020-03-26 00:00:00 1.9 3 Sur 15 Norte 0 -- -- 90
2020-03-25 23:00:00 1.6 0 Calma 6 Este 0 -- -- 95
2020-03-25 22:00:00 2 2 Sudeste 11 Nordeste 0 -- -- 93
2020-03-25 21:00:00 3.5 7 Nordeste 10 Norte 0 -- -- 90
2020-03-25 20:00:00 4.9 2 Sudeste 9 Sudeste 0 -- -- 83
2020-03-25 19:00:00 8.3 7 Este 24 Sudeste 0 -- -- 69
2020-03-25 18:00:00 10.3 16 Este 23 Este 0 -- -- 63
2020-03-25 17:00:00 9.9 10 Sudeste 34 Este 0 -- -- 64
2020-03-25 16:00:00 10.5 26 Este 36 Este 0 -- -- 64
2020-03-25 15:00:00 13.6 3 Norte 14 Sudoeste 0 -- -- 43
2020-03-25 14:00:00 13.2 8 Oeste 17 Oeste 0 -- -- 48
2020-03-25 13:00:00 12.1 7 Norte 12 Norte 0 -- -- 49
2020-03-25 12:00:00 11.9 4 Este 11 Este 0 -- -- 55
2020-03-25 11:00:00 10.2 4 Oeste 11 Oeste 0 -- -- 68
2020-03-25 10:00:00 6.2 2 Noroeste 6 Norte 0 -- -- 83
2020-03-25 09:00:00 4.8 2 Norte 4 Norte 0 -- -- 91
2020-03-25 08:00:00 1.7 2 Nordeste 4 Nordeste 0 -- -- 99
2020-03-25 07:00:00 0.6 0 Calma 6 Sur 0 -- -- 99
2020-03-25 06:00:00 1.1 0 Calma 10 Noroeste 0 -- -- 97
2020-03-25 05:00:00 2.5 5 Noroeste 9 Noroeste 0 -- -- 96
2020-03-25 04:00:00 2.5 2 Noroeste 5 Noroeste 0 -- -- 97
2020-03-25 03:00:00 2.6 0 Calma 5 Sur 0 -- -- 97
2020-03-25 02:00:00 2.2 3 Sur 6 Sur 0 -- -- 97
2020-03-25 01:00:00 0.7 0 Calma 6 Este 0 -- -- 97
2020-03-25 00:00:00 1.4 0 Calma 4 Nordeste 0 -- -- 97
2020-03-24 23:00:00 0.8 2 Nordeste 6 Nordeste 0 -- -- 95
2020-03-24 22:00:00 1.7 3 Nordeste 8 Nordeste 0 -- -- 93
2020-03-24 21:00:00 3.5 4 Sudeste 8 Este 0 -- -- 91
2020-03-24 20:00:00 5.3 5 Sudeste 9 Este 0 -- -- 81
2020-03-24 19:00:00 8.4 10 Este 27 Este 0 -- -- 68
2020-03-24 18:00:00 10.7 17 Este 30 Este 0 -- -- 55
2020-03-24 17:00:00 10.7 17 Este 34 Este 0 -- -- 64
2020-03-24 16:00:00 10.1 22 Este 33 Nordeste 0 -- -- 65
2020-03-24 15:00:00 10.6 22 Este 36 Este 0 -- -- 66
2020-03-24 14:00:00 11.4 24 Este 44 Este 0 -- -- 64
2020-03-24 13:00:00 10.3 23 Este 36 Nordeste 0 -- -- 69
2020-03-24 12:00:00 9.7 24 Este 36 Este 0 -- -- 73
2020-03-24 11:00:00 9.2 27 Este 38 Este 0 -- -- 79
2020-03-24 10:00:00 8.7 26 Este 38 Este 0 -- -- 77
2020-03-24 09:00:00 7 22 Este 30 Este 0 -- -- 87
2020-03-24 08:00:00 5.4 16 Este 31 Este 0 -- -- 91
2020-03-24 07:00:00 6 15 Este 24 Nordeste 0 -- -- 90
2020-03-24 06:00:00 6 17 Nordeste 26 Nordeste 0 -- -- 90
2020-03-24 05:00:00 6.5 17 Este 25 Este 0 -- -- 91
2020-03-24 04:00:00 6.7 15 Este 24 Nordeste 0 -- -- 92
2020-03-24 03:00:00 6.8 15 Este 24 Este 0 -- -- 93
2020-03-24 02:00:00 6.7 17 Este 32 Este 0 -- -- 93
2020-03-24 01:00:00 6.7 15 Este 28 Este 0 -- -- 93
2020-03-24 00:00:00 6.8 16 Este 27 Este 0 -- -- 92
2020-03-23 23:00:00 7.4 16 Este 26 Este 0 -- -- 92
2020-03-23 22:00:00 7.4 17 Este 27 Este 0 -- -- 91
2020-03-23 21:00:00 6.6 15 Este 31 Este 0 -- -- 93
2020-03-23 20:00:00 8.3 19 Este 33 Este 0 -- -- 85
2020-03-23 19:00:00 9.4 22 Este 30 Este 0 -- -- 77
2020-03-23 18:00:00 9.8 18 Este 26 Este 0 -- -- 74
2020-03-23 17:00:00 10 19 Este 32 Este 0 -- -- 81
2020-03-23 16:00:00 11.4 18 Este 30 Este 0 -- -- 70
2020-03-23 15:00:00 9.3 20 Este 33 Este 0.2 -- -- 79
2020-03-23 14:00:00 8.5 20 Este 34 Este 0.2 -- -- 87
2020-03-23 13:00:00 9.6 20 Este 30 Este 0 -- -- 72
2020-03-23 12:00:00 10 22 Este 35 Este 0 -- -- 72
2020-03-23 11:00:00 9.6 21 Este 33 Este 0 -- -- 78
2020-03-23 10:00:00 8.2 18 Este 27 Este 0 -- -- 83
2020-03-23 09:00:00 7.2 16 Este 23 Este 0 -- -- 89
2020-03-23 08:00:00 6.2 13 Este 22 Este 0 -- -- 91
2020-03-23 07:00:00 6 15 Este 22 Este 0 -- -- 92
2020-03-23 06:00:00 5.9 11 Este 17 Este 0 -- -- 94
2020-03-23 05:00:00 4.6 7 Este 16 Nordeste 0 -- -- 94
2020-03-23 04:00:00 5.7 9 Nordeste 16 Este 0 -- -- 92
2020-03-23 03:00:00 5.6 6 Nordeste 12 Este 0 -- -- 91
2020-03-23 02:00:00 5.9 9 Este 14 Este 0 -- -- 89
2020-03-23 01:00:00 5.7 6 Este 15 Nordeste 0 -- -- 88
2020-03-23 00:00:00 6 5 Nordeste 7 Nordeste 0 -- -- 89
2020-03-22 23:00:00 4.5 4 Nordeste 8 Este 0 -- -- 94
2020-03-22 22:00:00 4.9 6 Este 13 Nordeste 0 -- -- 90
2020-03-22 21:00:00 5.7 10 Este 14 Este 0 -- -- 86
2020-03-22 20:00:00 8.2 11 Este 22 Nordeste 0 -- -- 76
2020-03-22 19:00:00 9.5 19 Este 31 Este 0 -- -- 67
2020-03-22 18:00:00 10.3 20 Este 37 Este 0 -- -- 63
2020-03-22 17:00:00 11.4 24 Este 37 Este 0 -- -- 58
2020-03-22 16:00:00 12.2 23 Este 39 Este 0 -- -- 53
2020-03-22 15:00:00 12.6 24 Este 40 Este 0 -- -- 53
2020-03-22 14:00:00 12.4 22 Este 35 Este 0 -- -- 53
2020-03-22 13:00:00 11 19 Este 30 Este 0 -- -- 60
2020-03-22 12:00:00 11.2 15 Este 25 Este 0 -- -- 63
2020-03-22 11:00:00 10.5 16 Este 22 Nordeste 0 -- -- 65
2020-03-22 10:00:00 9.4 4 Este 9 Este 0 -- -- 76
2020-03-22 09:00:00 6.8 3 Sudoeste 6 Sur 0 -- -- 89
2020-03-22 08:00:00 5.9 3 Sur 5 Sur 0 -- -- 92
2020-03-22 07:00:00 5.5 0 Calma 4 Noroeste 0 -- -- 93
2020-03-22 06:00:00 5.6 4 Noroeste 6 Noroeste 0 -- -- 92
2020-03-22 05:00:00 5.5 0 Calma 10 Sudoeste 0 -- -- 92
2020-03-22 04:00:00 5.8 3 Oeste 6 Sudoeste 0 -- -- 91
2020-03-22 03:00:00 6 0 Calma 8 Sudoeste 0 -- -- 91
2020-03-22 02:00:00 6.1 3 Oeste 7 Sudoeste 0 -- -- 89
2020-03-22 01:00:00 6.1 4 Sudoeste 12 Sudoeste 0 -- -- 90
2020-03-22 00:00:00 6.2 5 Sudoeste 13 Sudoeste 0 -- -- 92
2020-03-21 23:00:00 6.3 6 Sudoeste 13 Sudoeste 0 -- -- 93
2020-03-21 22:00:00 6.3 6 Sudoeste 12 Sudoeste 0 -- -- 94
2020-03-21 21:00:00 7.9 3 Sudeste 8 Sudeste 0 -- -- 88
2020-03-21 20:00:00 8 0 Calma 5 Sur 0 -- -- 86
2020-03-21 19:00:00 8.5 4 Sudoeste 16 Sur 0 -- -- 83
2020-03-21 18:00:00 9.1 7 Sur 14 Sur 0 -- -- 79
2020-03-21 17:00:00 9.4 7 Sur 15 Sudeste 0 -- -- 76
2020-03-21 16:00:00 9.5 7 Este 15 Este 0 -- -- 73
2020-03-21 15:00:00 10 6 Sudeste 17 Este 0 -- -- 69
2020-03-21 14:00:00 10 8 Sudeste 15 Este 0 -- -- 70
2020-03-21 13:00:00 10 8 Sudeste 19 Este 0 -- -- 71
2020-03-21 12:00:00 9.4 10 Sudeste 19 Este 0 -- -- 78
2020-03-21 11:00:00 7.9 12 Sudeste 19 Este 0 -- -- 84
2020-03-21 10:00:00 7.4 10 Sudeste 17 Sudeste 0 -- -- 86
2020-03-21 09:00:00 7 10 Este 16 Este 0 -- -- 89
2020-03-21 08:00:00 5.9 9 Sudeste 14 Este 0 -- -- 94
2020-03-21 07:00:00 5.9 8 Sudeste 16 Sudeste 0 -- -- 93
2020-03-21 06:00:00 6 5 Este 12 Este 0 -- -- 94
2020-03-21 05:00:00 6.1 7 Sudeste 15 Este 0 -- -- 94
2020-03-21 04:00:00 6.1 8 Este 13 Este 0 -- -- 95
2020-03-21 03:00:00 5.4 5 Sudeste 9 Este 0 -- -- 95
2020-03-21 02:00:00 5.4 8 Este 15 Este 0 -- -- 93
2020-03-21 01:00:00 6.7 10 Este 21 Este 0 -- -- 91
2020-03-21 00:00:00 6.2 6 Este 17 Este 0 -- -- 91
2020-03-20 23:00:00 7 10 Este 17 Este 0 -- -- 90
2020-03-20 22:00:00 8.4 10 Este 18 Este 0 -- -- 86
2020-03-20 21:00:00 9 10 Este 20 Este 0 -- -- 84
2020-03-20 20:00:00 9.6 14 Este 21 Este 0 -- -- 80
2020-03-20 19:00:00 10.7 9 Este 17 Sudeste 0 -- -- 76
2020-03-20 18:00:00 12.9 9 Este 15 Este 0 -- -- 65
2020-03-20 17:00:00 12.6 11 Este 19 Este 0 -- -- 65
2020-03-20 16:00:00 10.9 12 Este 21 Este 0 -- -- 73
2020-03-20 15:00:00 11 10 Este 17 Este 0 -- -- 72
2020-03-20 14:00:00 10.8 9 Sudeste 18 Sudeste 0 -- -- 71
2020-03-20 13:00:00 10.6 8 Sur 19 Sudeste 0 -- -- 71
2020-03-20 12:00:00 10.5 9 Sudeste 16 Este 0 -- -- 74
2020-03-20 11:00:00 8 9 Sudeste 15 Sudeste 0 -- -- 82
2020-03-20 10:00:00 6.5 9 Sudeste 17 Este 0 -- -- 87
2020-03-20 09:00:00 5.6 12 Sudeste 19 Este 0 -- -- 89
2020-03-20 08:00:00 5.3 8 Este 17 Este 0 -- -- 90
2020-03-20 07:00:00 5.6 11 Este 17 Este 0 -- -- 90
2020-03-20 06:00:00 5.9 8 Sudeste 16 Sudeste 0 -- -- 90
2020-03-20 05:00:00 6.1 9 Este 14 Este 0 -- -- 90
2020-03-20 04:00:00 6.6 7 Este 12 Este 0 -- -- 88
2020-03-20 03:00:00 7.1 5 Este 14 Este 0 -- -- 87
2020-03-20 02:00:00 6.8 5 Este 10 Este 0 -- -- 87
2020-03-20 01:00:00 5.3 4 Sudeste 12 Sudeste 0 -- -- 91
2020-03-20 00:00:00 6 7 Este 17 Este 0 -- -- 87
2020-03-19 23:00:00 6.4 7 Sudeste 19 Este 0 -- -- 87
2020-03-19 22:00:00 8 14 Este 23 Este 0 -- -- 78
2020-03-19 21:00:00 8.5 14 Este 24 Este 0 -- -- 71
2020-03-19 20:00:00 9.3 13 Este 22 Este 0 -- -- 68
2020-03-19 19:00:00 11.4 12 Este 24 Este 0 -- -- 66
2020-03-19 18:00:00 14.2 15 Este 23 Este 0 -- -- 52
2020-03-19 17:00:00 15.8 13 Este 22 Este 0 -- -- 43
2020-03-19 16:00:00 15.9 12 Este 25 Este 0 -- -- 49
2020-03-19 15:00:00 15.3 14 Este 24 Este 0 -- -- 46
2020-03-19 14:00:00 14.2 15 Este 24 Este 0 -- -- 44
2020-03-19 13:00:00 13 16 Este 23 Este 0 -- -- 47
2020-03-19 12:00:00 10.9 14 Sudeste 22 Este 0 -- -- 56
2020-03-19 11:00:00 9.7 13 Este 21 Este 0 -- -- 70
2020-03-19 10:00:00 9.2 8 Este 16 Este 0 -- -- 93
2020-03-19 09:00:00 6.3 9 Sudeste 16 Este 0 -- -- 99
2020-03-19 08:00:00 5.3 4 Este 8 Este 0 -- -- 100
2020-03-19 07:00:00 4.5 3 Este 5 Este 0 -- -- 99
2020-03-19 06:00:00 5.3 4 Este 7 Este 0 -- -- 99
2020-03-19 05:00:00 6.2 5 Este 10 Este 0 -- -- 99
2020-03-19 04:00:00 5 3 Nordeste 6 Este 0 -- -- 100
2020-03-19 03:00:00 5.3 4 Nordeste 5 Nordeste 0 -- -- 99
2020-03-19 02:00:00 5.5 3 Este 4 Este 0 -- -- 99
2020-03-19 01:00:00 6.5 2 Este 8 Este 0 -- -- 98
2020-03-19 00:00:00 6.3 5 Este 14 Sudeste 0 -- -- 95
2020-03-18 23:00:00 8 10 Sudeste 18 Este 0 -- -- 92
2020-03-18 22:00:00 9 12 Sudeste 20 Este 0 -- -- 88
2020-03-18 21:00:00 9.7 10 Este 14 Este 0 -- -- 84
2020-03-18 20:00:00 9.3 5 Este 8 Este 0 -- -- 88
2020-03-18 19:00:00 11.7 5 Este 15 Este 0 -- -- 78
2020-03-18 18:00:00 12.8 10 Este 19 Este 0 -- -- 68
2020-03-18 17:00:00 13.5 11 Este 24 Este 0 -- -- 68
2020-03-18 16:00:00 14.9 14 Este 25 Este 0 -- -- 60
2020-03-18 15:00:00 14.2 15 Este 22 Este 0 -- -- 59
2020-03-18 14:00:00 14.3 13 Este 23 Este 0 -- -- 61
2020-03-18 13:00:00 13.7 15 Este 23 Este 0 -- -- 61
2020-03-18 12:00:00 12.8 13 Este 22 Este 0 -- -- 64
2020-03-18 11:00:00 12 12 Este 21 Este 0 -- -- 65
2020-03-18 10:00:00 9.9 11 Este 16 Este 0 -- -- 77
2020-03-18 09:00:00 8.1 6 Este 11 Este 0 -- -- 97
2020-03-18 08:00:00 4.5 3 Este 6 Este 0 -- -- 99
2020-03-18 07:00:00 4.4 3 Este 8 Este 0 -- -- 99
2020-03-18 06:00:00 4 0 Calma 5 Este 0 -- -- 99
2020-03-18 05:00:00 4.2 3 Este 6 Norte 0 -- -- 99
2020-03-18 04:00:00 5.3 2 Norte 16 Este 0 -- -- 97
2020-03-18 03:00:00 6.6 12 Este 19 Este 0 -- -- 97
2020-03-18 02:00:00 6.8 10 Este 15 Este 0 -- -- 96
2020-03-18 01:00:00 7.1 9 Este 20 Este 0 -- -- 95
2020-03-18 00:00:00 7.2 17 Este 24 Este 0 -- -- 95
2020-03-17 23:00:00 7.3 12 Este 25 Este 0 -- -- 94
2020-03-17 22:00:00 8.1 14 Este 29 Este 0 -- -- 94
2020-03-17 21:00:00 8.4 22 Este 31 Este 0 -- -- 94
2020-03-17 20:00:00 8.6 22 Este 33 Este 0 -- -- 94
2020-03-17 19:00:00 8.8 21 Este 35 Este 0 -- -- 94
2020-03-17 18:00:00 9 24 Este 36 Este 0 -- -- 93
2020-03-17 17:00:00 9 26 Este 35 Este 0 -- -- 93
2020-03-17 16:00:00 10.1 24 Este 42 Este 0.2 -- -- 92
2020-03-17 15:00:00 11.2 25 Este 39 Este 0 -- -- 87
2020-03-17 14:00:00 8.6 23 Este 36 Este 0 -- -- 96
2020-03-17 13:00:00 7.7 23 Este 35 Este 0 -- -- 98
2020-03-17 12:00:00 7.3 20 Este 33 Este 0 -- -- 98
2020-03-17 11:00:00 7.3 19 Este 34 Este 0 -- -- 97
2020-03-17 10:00:00 7.2 15 Este 25 Este 0.4 -- -- 95
2020-03-17 09:00:00 6.9 15 Nordeste 26 Este 0.8 -- -- 96
2020-03-17 08:00:00 6.2 11 Nordeste 19 Nordeste 0.4 -- -- 96
2020-03-17 07:00:00 6 12 Nordeste 18 Nordeste 2 -- -- 97
2020-03-17 06:00:00 5.6 13 Nordeste 22 Nordeste 2.2 -- -- 96
2020-03-17 05:00:00 5.3 17 Nordeste 28 Nordeste 0.6 -- -- 95
2020-03-17 04:00:00 5.2 19 Nordeste 29 Nordeste 0.2 -- -- 94
2020-03-17 03:00:00 5.2 20 Nordeste 33 Nordeste 0 -- -- 93
2020-03-17 02:00:00 5 17 Nordeste 28 Nordeste 0 -- -- 93
2020-03-17 01:00:00 5.1 14 Nordeste 36 Nordeste 0 -- -- 93
2020-03-17 00:00:00 4.6 28 Nordeste 42 Nordeste 0 -- -- 91
2020-03-16 23:00:00 4.5 12 Este 36 Nordeste 0 -- -- 93
2020-03-16 22:00:00 4.2 26 Nordeste 41 Nordeste 0 -- -- 93
2020-03-16 21:00:00 3.8 20 Este 36 Nordeste 0 -- -- 94
2020-03-16 20:00:00 3.5 19 Nordeste 32 Nordeste 0.2 -- -- 96
2020-03-16 19:00:00 2.2 9 Este 20 Nordeste 3 -- -- 96
2020-03-16 18:00:00 2.4 12 Norte 22 Nordeste 2 -- -- 96
2020-03-16 17:00:00 1.9 9 Este 20 Nordeste 4 -- -- 96
2020-03-16 16:00:00 2.1 14 Nordeste 27 Nordeste 0.8 -- -- 95
2020-03-16 15:00:00 2.2 3 Nordeste 19 Nordeste 1 -- -- 92
2020-03-16 14:00:00 1.6 15 Nordeste 37 Nordeste 2 -- -- 93
2020-03-16 13:00:00 1.5 20 Nordeste 32 Norte 3.2 -- -- 93
2020-03-16 12:00:00 0.9 0 Calma 16 Nordeste 2.4 -- -- 96
2020-03-16 11:00:00 0.6 0 Calma -- -- 2.4 -- -- 98
2020-03-16 10:00:00 0.2 0 Calma 35 Norte 0.4 -- -- 98
2020-03-16 09:00:00 0.3 26 Norte 35 Norte 0.6 -- -- 99
2020-03-16 08:00:00 0.2 25 Norte 40 Norte 2 -- -- 97
2020-03-16 07:00:00 2 28 Norte 41 Nordeste 2.6 -- -- 94
2020-03-16 06:00:00 4.4 10 Noroeste 17 Noroeste 2.2 -- -- 97
2020-03-16 05:00:00 5 9 Oeste 13 Oeste 1.6 -- -- 97
2020-03-16 04:00:00 5.5 8 Oeste 29 Sur 4.6 -- -- 96
2020-03-16 03:00:00 7.1 10 Sudeste 26 Sur 1.8 -- -- 92
2020-03-16 02:00:00 7.1 9 Sur 39 Sur 2.4 -- -- 96
2020-03-16 01:00:00 7.6 10 Sudeste 22 Sur 0 -- -- 88
2020-03-16 00:00:00 7.1 10 Sudeste 19 Sudeste 0.2 -- -- 92
2020-03-15 23:00:00 6.8 8 Sudeste 20 Este 1 -- -- 94
2020-03-15 22:00:00 6.1 6 Este 43 Sudoeste 7.2 -- -- 96
2020-03-15 21:00:00 8.2 4 Nordeste 19 Oeste 1.2 -- -- 88
2020-03-15 20:00:00 10 14 Oeste 45 Oeste 0 -- -- 68
2020-03-15 19:00:00 13.8 26 Sur 46 Sur 0 -- -- 57
2020-03-15 18:00:00 15.2 30 Sur 44 Sur 0 -- -- 62
2020-03-15 17:00:00 18.3 23 Sur 44 Sur 0 -- -- 48
2020-03-15 16:00:00 18.5 23 Sudoeste 42 Sudoeste 0 -- -- 45
2020-03-15 15:00:00 17.9 22 Sudoeste 35 Sudoeste 0 -- -- 50
2020-03-15 14:00:00 16.9 21 Sur 36 Sur 0 -- -- 58
2020-03-15 13:00:00 16.1 18 Sur 35 Sur 0 -- -- 59
2020-03-15 12:00:00 15.7 21 Sur 33 Sur 0 -- -- 62
2020-03-15 11:00:00 16 18 Sudoeste 30 Sudoeste 0 -- -- 64
2020-03-15 10:00:00 13.2 3 Sudeste 9 Este 0 -- -- 64
2020-03-15 09:00:00 5.6 3 Este 5 Este 0 -- -- 74
2020-03-15 08:00:00 -0.1 2 Sudeste 5 Este 0 -- -- 88
2020-03-15 07:00:00 -1.1 4 Este 5 Este 0 -- -- 91
2020-03-15 06:00:00 -1 0 Calma 2 Este 0 -- -- 90
2020-03-15 05:00:00 -0.1 0 Calma 7 Este 0 -- -- 86
2020-03-15 04:00:00 -0.2 6 Este 7 Este 0 -- -- 86
2020-03-15 03:00:00 0.2 2 Este 7 Este 0 -- -- 84
2020-03-15 02:00:00 1 3 Este 5 Nordeste 0 -- -- 82
2020-03-15 01:00:00 0.8 4 Este 5 Este 0 -- -- 85
2020-03-15 00:00:00 1.4 3 Este 5 Este 0 -- -- 83
2020-03-14 23:00:00 2.7 3 Este 5 Sudeste 0 -- -- 77
2020-03-14 22:00:00 4.7 0 Calma 9 Nordeste 0 -- -- 67
2020-03-14 21:00:00 7.1 5 Este 13 Este 0 -- -- 56
2020-03-14 20:00:00 9.7 9 Este 14 Este 0 -- -- 48
2020-03-14 19:00:00 17 0 Calma 6 Sudoeste 0 -- -- 33
2020-03-14 18:00:00 19.3 3 Sur 9 Sur 0 -- -- 23
2020-03-14 17:00:00 20.5 3 Noroeste 9 Norte 0 -- -- 24
2020-03-14 16:00:00 19.1 4 Oeste 15 Oeste 0 -- -- 25
2020-03-14 15:00:00 18.2 5 Noroeste 13 Noroeste 0 -- -- 32
2020-03-14 14:00:00 16.3 4 Noroeste 13 Norte 0 -- -- 42
2020-03-14 13:00:00 13.7 8 Oeste 14 Oeste 0 -- -- 53
2020-03-14 12:00:00 8.4 4 Oeste 14 Oeste 0 -- -- 94
2020-03-14 11:00:00 5.4 8 Oeste 14 Oeste 0 -- -- 97
2020-03-14 10:00:00 4 8 Oeste 11 Oeste 0 -- -- 99
2020-03-14 09:00:00 2.5 6 Oeste 10 Oeste 0 -- -- 99
2020-03-14 08:00:00 2.3 3 Oeste 6 Oeste 0 -- -- 99
2020-03-14 07:00:00 -0.1 0 Calma 4 Noroeste 0 -- -- 99
2020-03-14 06:00:00 0 3 Oeste 6 Noroeste 0 -- -- 98
2020-03-14 05:00:00 0.3 0 Calma 5 Noroeste 0 -- -- 99
2020-03-14 04:00:00 1.2 2 Nordeste 5 Sudeste 0 -- -- 98
2020-03-14 03:00:00 1.7 0 Calma 6 Este 0 -- -- 97
2020-03-14 02:00:00 2.6 3 Este 5 Este 0 -- -- 96
2020-03-14 01:00:00 2.8 2 Sudoeste 8 Noroeste 0 -- -- 96
2020-03-14 00:00:00 3.4 0 Calma 8 Nordeste 0 -- -- 91
2020-03-13 23:00:00 5.3 4 Norte 15 Sudeste 0 -- -- 88
2020-03-13 22:00:00 8.1 13 Este 20 Sudeste 0 -- -- 78
2020-03-13 21:00:00 8.8 9 Sudeste 19 Este 0 -- -- 76
2020-03-13 20:00:00 10.4 12 Sudeste 25 Este 0 -- -- 70
2020-03-13 19:00:00 12.5 16 Este 25 Este 0 -- -- 63
2020-03-13 18:00:00 14.2 18 Este 28 Este 0 -- -- 58
2020-03-13 17:00:00 16.2 15 Este 23 Este 0 -- -- 55
2020-03-13 16:00:00 16.9 12 Sudeste 19 Este 0 -- -- 56
2020-03-13 15:00:00 17.9 10 Este 22 Este 0 -- -- 54
2020-03-13 14:00:00 16.9 11 Este 24 Este 0 -- -- 56
2020-03-13 13:00:00 15.6 14 Este 23 Este 0 -- -- 60
2020-03-13 12:00:00 14.4 10 Este 23 Este 0 -- -- 64
2020-03-13 11:00:00 13.5 15 Este 26 Este 0 -- -- 62
2020-03-13 10:00:00 11 18 Este 26 Este 0 -- -- 72
2020-03-13 09:00:00 8.1 13 Nordeste 21 Nordeste 0 -- -- 83
2020-03-13 08:00:00 6.5 3 Nordeste 25 Este 0 -- -- 90
2020-03-13 07:00:00 7.3 10 Este 20 Este 0 -- -- 87
2020-03-13 06:00:00 7.7 9 Nordeste 13 Nordeste 0 -- -- 88
2020-03-13 05:00:00 7.1 4 Este 14 Este 0 -- -- 91
2020-03-13 04:00:00 7.3 10 Este 18 Este 0 -- -- 90
2020-03-13 03:00:00 7.6 13 Este 25 Nordeste 0 -- -- 90
2020-03-13 02:00:00 8.2 16 Nordeste 24 Norte 0 -- -- 89
2020-03-13 01:00:00 7.9 3 Este 14 Nordeste 0 -- -- 90
2020-03-13 00:00:00 9 5 Nordeste 16 Nordeste 0 -- -- 84
2020-03-12 23:00:00 10.6 8 Este 12 Este 0 -- -- 77
2020-03-12 22:00:00 12.7 4 Este 14 Este 0 -- -- 61
2020-03-12 21:00:00 15.2 9 Oeste 18 Sudoeste 0 -- -- 51
2020-03-12 20:00:00 16.4 13 Sudoeste 20 Sudoeste 0 -- -- 48
2020-03-12 19:00:00 17.7 12 Sudoeste 18 Sur 0 -- -- 45
2020-03-12 18:00:00 21.4 10 Sudoeste 29 Sudoeste 0 -- -- 36
2020-03-12 17:00:00 22.7 15 Sudoeste 31 Sur 0 -- -- 31
2020-03-12 16:00:00 23.4 19 Sudoeste 35 Sudoeste 0 -- -- 30
2020-03-12 15:00:00 22.9 22 Sudoeste 37 Sudoeste 0 -- -- 33
2020-03-12 14:00:00 23.2 20 Sur 39 Sur 0 -- -- 31
2020-03-12 13:00:00 23.1 24 Sur 36 Sudoeste 0 -- -- 35
2020-03-12 12:00:00 23 19 Sudoeste 31 Sur 0 -- -- 37
2020-03-12 11:00:00 20.1 4 Noroeste 9 Este 0 -- -- 48
2020-03-12 10:00:00 16.9 4 Este 8 Sudeste 0 -- -- 55
2020-03-12 09:00:00 9.2 4 Este 9 Nordeste 0 -- -- 82
2020-03-12 08:00:00 3.8 6 Este 9 Nordeste 0 -- -- 92
2020-03-12 07:00:00 2.7 4 Este 13 Sur 0 -- -- 94
2020-03-12 06:00:00 3.3 4 Este 6 Este 0 -- -- 94
2020-03-12 05:00:00 3.7 5 Este 8 Este 0 -- -- 92
2020-03-12 04:00:00 4.2 7 Nordeste 8 Nordeste 0 -- -- 92
2020-03-12 03:00:00 5.1 3 Este 9 Nordeste 0 -- -- 91
2020-03-12 02:00:00 5.7 7 Nordeste 9 Este 0 -- -- 89
2020-03-12 01:00:00 5.8 3 Sudeste 10 Este 0 -- -- 88
2020-03-12 00:00:00 6.8 4 Este 7 Este 0 -- -- 84
2020-03-11 23:00:00 6.9 5 Este 6 Nordeste 0 -- -- 83
2020-03-11 22:00:00 8.6 5 Este 8 Nordeste 0 -- -- 77
2020-03-11 21:00:00 10.8 5 Este 6 Este 0 -- -- 70
2020-03-11 20:00:00 14.3 3 Sudoeste 9 Oeste 0 -- -- 56
2020-03-11 19:00:00 16.6 7 Oeste 21 Noroeste 0 -- -- 51
2020-03-11 18:00:00 20.9 16 Oeste 27 Oeste 0 -- -- 38
2020-03-11 17:00:00 23.2 22 Oeste 32 Oeste 0 -- -- 33
2020-03-11 16:00:00 23.1 22 Oeste 34 Oeste 0 -- -- 33
2020-03-11 15:00:00 22.6 21 Oeste 34 Oeste 0 -- -- 36
2020-03-11 14:00:00 21.5 14 Oeste 24 Oeste 0 -- -- 40
2020-03-11 13:00:00 20.3 10 Oeste 19 Oeste 0 -- -- 41
2020-03-11 12:00:00 17.8 11 Oeste 17 Noroeste 0 -- -- 41
2020-03-11 11:00:00 14.8 6 Noroeste 10 Oeste 0 -- -- 58
2020-03-11 10:00:00 11.9 6 Oeste 9 Oeste 0 -- -- 68
2020-03-11 09:00:00 6.4 0 Calma 7 Nordeste 0 -- -- 90
2020-03-11 08:00:00 0.9 4 Nordeste 6 Nordeste 0 -- -- 99
2020-03-11 07:00:00 -0.5 3 Noroeste 3 Noroeste 0 -- -- 98
2020-03-11 06:00:00 0.5 0 Calma 4 Noroeste 0 -- -- 98
2020-03-11 05:00:00 0.9 0 Calma 4 Sudeste 0 -- -- 97
2020-03-11 04:00:00 1.1 2 Noroeste 4 Noroeste 0 -- -- 95
2020-03-11 03:00:00 1.5 0 Calma 5 Este 0 -- -- 95
2020-03-11 02:00:00 2.4 2 Sudeste 4 Sudeste 0 -- -- 93
2020-03-11 01:00:00 3.4 3 Sudeste 5 Sur 0 -- -- 93
2020-03-11 00:00:00 4 3 Este 7 Nordeste 0 -- -- 91
2020-03-10 23:00:00 5.6 2 Este 6 Este 0 -- -- 87
2020-03-10 22:00:00 6.5 5 Este 9 Este 0 -- -- 84
2020-03-10 21:00:00 8.2 0 Calma 8 Oeste 0 -- -- 77
2020-03-10 20:00:00 10.7 5 Noroeste 15 Oeste 0 -- -- 70
2020-03-10 19:00:00 15.5 13 Oeste 23 Oeste 0 -- -- 54
2020-03-10 18:00:00 17.2 15 Oeste 25 Oeste 0 -- -- 51
2020-03-10 17:00:00 18.2 16 Oeste 33 Oeste 0 -- -- 46
2020-03-10 16:00:00 19.1 24 Oeste 37 Oeste 0 -- -- 43
2020-03-10 15:00:00 18.3 23 Oeste 36 Oeste 0 -- -- 44
2020-03-10 14:00:00 17.4 24 Oeste 34 Oeste 0 -- -- 43
2020-03-10 13:00:00 15.9 19 Oeste 34 Oeste 0 -- -- 46
2020-03-10 12:00:00 13.2 26 Oeste 35 Oeste 0 -- -- 54
2020-03-10 11:00:00 10.9 20 Oeste 30 Oeste 0 -- -- 63
2020-03-10 10:00:00 8.2 15 Oeste 21 Noroeste 0 -- -- 70
2020-03-10 09:00:00 5.1 12 Noroeste 16 Oeste 0 -- -- 80
2020-03-10 08:00:00 3.6 10 Oeste 15 Oeste 0 -- -- 82
2020-03-10 07:00:00 2.6 2 Noroeste 9 Oeste 0 -- -- 85
2020-03-10 06:00:00 3.2 5 Oeste 10 Oeste 0 -- -- 80
2020-03-10 05:00:00 2.7 3 Oeste 9 Sudoeste 0 -- -- 80
2020-03-10 04:00:00 3.3 5 Oeste 13 Oeste 0 -- -- 77
2020-03-10 03:00:00 2.6 6 Oeste 17 Oeste 0 -- -- 77
2020-03-10 02:00:00 3.6 13 Oeste 16 Oeste 0 -- -- 77
2020-03-10 01:00:00 3 5 Oeste 9 Sudoeste 0 -- -- 81
2020-03-10 00:00:00 2.8 2 Norte 4 Sudoeste 0 -- -- 80